joomla templates top joomla templates template joomla

King Air Abend

Notam

C3641/14 - CUSTOMS AVBL PPR, TEL 0049 9561 92098. 13 NOV 14:46 2014 UNTIL PERM. CREATED: 13 NOV 14:47 2014

Aerodrome Terminal Information Service (ATIS) Coburg

METAR
EDQC 280620Z AUTO 11003KT 9999 FEW042 OVC047 15/15 Q1018=

METAR und TAF der Umgebung

[Quelle: ADDS]
METAR
EDDF 280620Z 18004KT 140V200 CAVOK 19/15 Q1017 NOSIG =
EDDN 280620Z 10003KT 070V140 9999 FEW047 18/15 Q1018 NOSIG =
EDDE 280620Z 19005KT CAVOK 19/14 Q1017 NOSIG =
TAF
EDDF 280500Z 2806/2912 VRB03KT 9999 FEW040 BECMG 2806/2808 22007KT PROB30 TEMPO 2813/2818 SHRA SCT030TCU =
EDDN 280500Z 2806/2906 13005KT 9999 FEW035 BECMG 2807/2809 24005KT PROB30 TEMPO 2813/2821 28020G30KT TSRA BKN030CB PROB30 TEMPO 2823/2904 SHRA BKN025TCU =
EDDE 280500Z 2806/2906 23007KT 9999 SCT040 PROB30 TEMPO 2818/2824 TSRA BKN020CB =
SR / SS: 03:42 / 19:06 UTC (EDQC 2016-07-28)

Verkehrslandeplatz Coburg Brandensteinsebene
Tower
Zur Brandensteinsebene
96450 Coburg

AeroClub Logo 200px

Aero Club Coburg e. V.
Postfach 11 09
96401 Coburg